St-François Airport

TFFC · Guadeloupe, Guadeloupe

使用的METAR站距离机场29 km。
罗盘
风向 的 风向 120° St-François Airport 11/29
风: 5 kt, 2 beaufort

5 kt

2 kt
改变
0 ft 1.000 2.000 3.000 4.000 5.000
CAVOK
METAR TFFR 290200Z AUTO 12005KT CAVOK 26/24 Q1017 NOSIG

METAR St-François Airport - TFFC/SFC

St-François Airport是,Guadeloupe中的小机场。 该机场位于纬度16,25779和经度-61,26236。 该机场有一条跑道: 11/29. 本场的ICAO机场代码为TFFC。 该机场的IATA代码为SFC。 机场在Piarco FIR中。

该航空气象观测是针对Pointe-à-Pitre Le Raizet在2024年5月28日 22:00, 当地时间进行的。

机场观察

风向为120°,速度为5 kt。

天气为CAVOK。这意味着在5.000 ft或MSA(最低安全高度)以下(以较高者为准)以下没有云。这也意味着没有观测到积雨云或高耸的积云,可见度为10 km 或者更多或更高。此外,不会有雾,降雨或其他重要天气。

温度和风寒是26 °C。 露点为24 °C,相对湿度为89%。 海平面上的气压为1017 hPa (QNH)。

白天

今天,太阳从05:32升起,在18:33降落。 这适用于St-François Airport,世界夏令时可能有所不同。 当地时间与世界标准时间之间的时差为-4 小时。 夏令时目前正在进行中。

公司介绍

在这个机场,你可以找到飞行俱乐部。 本场上唯一已知的公司是Aéroclub Saint-François Caraïbes。

体会

到Vliegles.nl去找飞行课程,跳伞和其他飞行体验。 浏览页面,了解St-François Airport附近所有可用的活动。 你也可以使用搜索功能来寻找你所在地附近的特定飞行课程、跳伞或其他飞行体验。

跑道

Id 标题 侧风 逆风 侧风 %
11/29 100°-280° 2 kt 5 kt 34 %

逆风成分最大的方向会被突出显示,并用于横风计算。 这并不一定意味着这个方向在使用。

温度 & 天气

温度 26 °C
露点 24 °C
相对湿度 89%
Kp-index 0 (0-9)

白天

日出
05:33 (7:10)
中午
12:03
日落
18:34

小工具

你想在你的网站上有一个关于St-François Airport的当前航空天气(METAR)的小部件吗?

显示HTML代码
报告变更